Mckinley Sea — WDE5024 — position and weather

sailwx.info

Track history (hours):
 
Tides and Currents Weather Stations Pressure Air Temp Water Temp Dewpoint Dewpoint Depression Visibility Wind Speed Wind Dir Waves Ship Positions

Mckinley Sea

Owner: Kirby Offshore Marine, LLC, Staten Island, NY. More information available from US FCC via Universal Licensing System and Coast Guard Vessel Documentation Center.

Last reported at 2017-Mar-28 04:33 UTC. Time now 2017-Mar-28 12:05 UTC.
Position N 41°47' W 071°22'.

Length 41 m; draft 6 m.

Type: . MMSI: 367360980.

Date/timePositionNaut miles runAvg speedWind from/ knotsBaromVisibWave heightAir tempDewpointWater temp
2017-Mar-28 04:33N 41°47' W 071°22'4 4.5
2017-Mar-28 03:33N 41°43' W 071°20'122 6.7
2017-Mar-27 09:22N 40°50' W 073°46'5 6.6
2017-Mar-27 08:33N 40°48' W 073°53'5 4.8
2017-Mar-27 07:33N 40°45' W 073°58'5 4.5
2017-Mar-27 06:33N 40°41' W 074°01'2 1.9
2017-Mar-27 05:33N 40°40' W 074°03'0 0.0
2017-Mar-27 04:31N 40°40' W 074°03'0 0.0
2017-Mar-27 03:31N 40°40' W 074°03'1 0.6
2017-Mar-27 02:33N 40°39' W 074°03'7 6.8
2017-Mar-27 01:33N 40°38' W 074°12'3 0.1
2017-Mar-25 11:18N 40°35' W 074°13'0 0.1
2017-Mar-25 10:06N 40°35' W 074°12'3 5.3
2017-Mar-25 09:33N 40°38' W 074°12'7 6.8
2017-Mar-25 08:33N 40°40' W 074°03'1 1.0
2017-Mar-25 07:32N 40°40' W 074°02'0 0.1
2017-Mar-25 06:32N 40°40' W 074°02'0 0.0
2017-Mar-25 05:32N 40°40' W 074°02'0 0.0
2017-Mar-25 04:32N 40°40' W 074°02'0 0.0
2017-Mar-25 03:32N 40°40' W 074°02'0 0.0
2017-Mar-25 02:32N 40°40' W 074°02'0 0.1
2017-Mar-25 01:32N 40°40' W 074°02'0 0.2
2017-Mar-25 00:32N 40°40' W 074°02'0 0.1
2017-Mar-24 23:32N 40°40' W 074°02'0 0.0
2017-Mar-24 22:32N 40°40' W 074°02'0 0.0
2017-Mar-24 21:32N 40°40' W 074°02'2 1.8
2017-Mar-24 20:34N 40°40' W 074°04'5 4.3
2017-Mar-24 19:29N 40°38' W 074°10'3 3.5
2017-Mar-24 18:33N 40°39' W 074°06'2 1.5
2017-Mar-24 17:33N 40°40' W 074°04'0 0.0
2017-Mar-24 16:33N 40°40' W 074°04'0 0.0
2017-Mar-24 15:33N 40°40' W 074°04'0 0.0
2017-Mar-24 14:33N 40°40' W 074°04'0 0.0
2017-Mar-24 13:33N 40°40' W 074°04'0 0.0
2017-Mar-24 12:33N 40°40' W 074°04'0 0.0
2017-Mar-24 11:30N 40°40' W 074°04'0 0.0
2017-Mar-24 10:33N 40°40' W 074°04'0 0.0
2017-Mar-24 09:33N 40°40' W 074°04'0 0.0
2017-Mar-24 08:33N 40°40' W 074°04'5 4.4
2017-Mar-24 07:31N 40°38' W 074°10'0 0.0
2017-Mar-24 06:28N 40°38' W 074°10'0 0.0
2017-Mar-24 05:31N 40°38' W 074°10'0 0.0
2017-Mar-24 04:31N 40°38' W 074°10'5 4.7
2017-Mar-24 03:34N 40°40' W 074°04'0 0.0
2017-Mar-24 02:33N 40°40' W 074°04'2 1.8
2017-Mar-24 01:23N 40°39' W 074°07'0 0.0
2017-Mar-24 00:26N 40°39' W 074°07'0 0.0
2017-Mar-23 23:32N 40°39' W 074°07'0 0.0
2017-Mar-23 22:32N 40°39' W 074°07'2 2.1
2017-Mar-23 21:33N 40°40' W 074°04'0 0.0
2017-Mar-23 20:33N 40°40' W 074°04'0 0.0
2017-Mar-23 19:34N 40°40' W 074°04'5 5.3
2017-Mar-23 18:33N 40°43' W 073°58'7 6.5
2017-Mar-23 17:33N 40°48' W 073°53'67 8.4
2017-Mar-23 09:33N 41°09' W 072°29'1410.2
2017-Mar-23 08:12N 41°13' W 072°12'93 6.6
2017-Mar-22 18:09N 42°17' W 070°40'5 9.0
2017-Mar-22 17:33N 42°21' W 070°45'8 7.7
2017-Mar-22 16:34N 42°21' W 070°56'5 4.7
2017-Mar-22 15:33N 42°21' W 071°02'0 0.0
2017-Mar-22 14:33N 42°21' W 071°02'0 0.0
2017-Mar-22 13:33N 42°21' W 071°02'0 0.4
2017-Mar-22 12:33N 42°22' W 071°03'2 0.8
2017-Mar-22 10:29N 42°23' W 071°03'0 0.0
2017-Mar-22 09:32N 42°23' W 071°03'0 0.0
2017-Mar-22 08:32N 42°23' W 071°03'0 0.0
2017-Mar-22 07:32N 42°23' W 071°03'0 0.0
2017-Mar-22 06:32N 42°23' W 071°03'0 0.0
2017-Mar-22 05:32N 42°23' W 071°03'0 0.0
2017-Mar-22 04:32N 42°23' W 071°03'0 0.0
2017-Mar-22 03:32N 42°23' W 071°03'0 0.0
2017-Mar-22 02:32N 42°23' W 071°03'0 0.0
2017-Mar-22 01:32N 42°23' W 071°03'0 0.0
2017-Mar-22 00:32N 42°23' W 071°03'0 0.0
2017-Mar-21 23:32N 42°23' W 071°03'0 0.0
2017-Mar-21 22:32N 42°23' W 071°03'0 0.0
2017-Mar-21 21:32N 42°23' W 071°03'0 0.0
2017-Mar-21 20:32N 42°23' W 071°03'0 0.0
2017-Mar-21 19:32N 42°23' W 071°03'0 0.0
2017-Mar-21 18:32N 42°23' W 071°03'0 0.0
2017-Mar-21 17:32N 42°23' W 071°03'0 0.0
2017-Mar-21 16:32N 42°23' W 071°03'0 0.0
2017-Mar-21 15:32N 42°23' W 071°03'0 0.0
2017-Mar-21 14:32N 42°23' W 071°03'0 0.1
2017-Mar-21 13:08N 42°23' W 071°03'1 1.7
2017-Mar-21 12:33N 42°22' W 071°03'5 5.1
2017-Mar-21 11:34N 42°21' W 070°56'6 6.1
2017-Mar-21 10:34N 42°23' W 070°48'7 6.6
2017-Mar-21 09:33N 42°18' W 070°42'6 6.4
2017-Mar-21 08:33N 42°13' W 070°37'6 6.3
2017-Mar-21 07:33N 42°07' W 070°33'95 3.1
2017-Mar-20 01:19N 41°12' W 072°16'6 8.1
2017-Mar-20 00:33N 41°10' W 072°24'8 8.0
2017-Mar-19 23:33N 41°08' W 072°34'61 6.8
2017-Mar-19 14:33N 40°48' W 073°51'6 6.0
2017-Mar-19 13:33N 40°45' W 073°58'5 5.4
2017-Mar-19 12:33N 40°41' W 074°02'2 2.1
2017-Mar-19 11:33N 40°39' W 074°03'0 0.1
2017-Mar-19 10:33N 40°39' W 074°03'5 5.1
2017-Mar-19 09:33N 40°39' W 074°10'4 0.2
2017-Mar-18 14:25N 40°35' W 074°13'0 0.0
2017-Mar-18 13:33N 40°35' W 074°13'0 0.0
2017-Mar-18 11:10N 40°35' W 074°13'0 0.1
2017-Mar-18 10:33N 40°35' W 074°12'5 5.5
2017-Mar-18 09:33N 40°39' W 074°07'3 2.6
2017-Mar-18 08:34N 40°38' W 074°04'4 4.1
2017-Mar-18 07:34N 40°42' W 074°01'7 7.0
2017-Mar-18 06:33N 40°47' W 073°55'5 5.5
2017-Mar-18 05:33N 40°48' W 073°48'  
Track history (hours):
 
Tides and Currents Weather Stations Pressure Air Temp Water Temp Dewpoint Dewpoint Depression Visibility Wind Speed Wind Dir Waves Ship Positions

Mckinley Sea

Owner: Kirby Offshore Marine, LLC, Staten Island, NY. More information available from US FCC via Universal Licensing System and Coast Guard Vessel Documentation Center.

Last reported at 2017-Mar-28 04:33 UTC. Time now 2017-Mar-28 12:05 UTC.
Position N 41°47' W 071°22'.

Length 41 m; draft 6 m.

Type: . MMSI: 367360980.

Date/timePositionNaut miles runAvg speedWind from/ knotsBaromVisibWave heightAir tempDewpointWater temp
2017-Mar-28 04:33N 41°47' W 071°22'4 4.5
2017-Mar-28 03:33N 41°43' W 071°20'122 6.7
2017-Mar-27 09:22N 40°50' W 073°46'5 6.6
2017-Mar-27 08:33N 40°48' W 073°53'5 4.8
2017-Mar-27 07:33N 40°45' W 073°58'5 4.5
2017-Mar-27 06:33N 40°41' W 074°01'2 1.9
2017-Mar-27 05:33N 40°40' W 074°03'0 0.0
2017-Mar-27 04:31N 40°40' W 074°03'0 0.0
2017-Mar-27 03:31N 40°40' W 074°03'1 0.6
2017-Mar-27 02:33N 40°39' W 074°03'7 6.8
2017-Mar-27 01:33N 40°38' W 074°12'3 0.1
2017-Mar-25 11:18N 40°35' W 074°13'0 0.1
2017-Mar-25 10:06N 40°35' W 074°12'3 5.3
2017-Mar-25 09:33N 40°38' W 074°12'7 6.8
2017-Mar-25 08:33N 40°40' W 074°03'1 1.0
2017-Mar-25 07:32N 40°40' W 074°02'0 0.1
2017-Mar-25 06:32N 40°40' W 074°02'0 0.0
2017-Mar-25 05:32N 40°40' W 074°02'0 0.0
2017-Mar-25 04:32N 40°40' W 074°02'0 0.0
2017-Mar-25 03:32N 40°40' W 074°02'0 0.0
2017-Mar-25 02:32N 40°40' W 074°02'0 0.1
2017-Mar-25 01:32N 40°40' W 074°02'0 0.2
2017-Mar-25 00:32N 40°40' W 074°02'0 0.1
2017-Mar-24 23:32N 40°40' W 074°02'0 0.0
2017-Mar-24 22:32N 40°40' W 074°02'0 0.0
2017-Mar-24 21:32N 40°40' W 074°02'2 1.8
2017-Mar-24 20:34N 40°40' W 074°04'5 4.3
2017-Mar-24 19:29N 40°38' W 074°10'3 3.5
2017-Mar-24 18:33N 40°39' W 074°06'2 1.5
2017-Mar-24 17:33N 40°40' W 074°04'0 0.0
2017-Mar-24 16:33N 40°40' W 074°04'0 0.0
2017-Mar-24 15:33N 40°40' W 074°04'0 0.0
2017-Mar-24 14:33N 40°40' W 074°04'0 0.0
2017-Mar-24 13:33N 40°40' W 074°04'0 0.0
2017-Mar-24 12:33N 40°40' W 074°04'0 0.0
2017-Mar-24 11:30N 40°40' W 074°04'0 0.0
2017-Mar-24 10:33N 40°40' W 074°04'0 0.0
2017-Mar-24 09:33N 40°40' W 074°04'0 0.0
2017-Mar-24 08:33N 40°40' W 074°04'5 4.4
2017-Mar-24 07:31N 40°38' W 074°10'0 0.0
2017-Mar-24 06:28N 40°38' W 074°10'0 0.0
2017-Mar-24 05:31N 40°38' W 074°10'0 0.0
2017-Mar-24 04:31N 40°38' W 074°10'5 4.7
2017-Mar-24 03:34N 40°40' W 074°04'0 0.0
2017-Mar-24 02:33N 40°40' W 074°04'2 1.8
2017-Mar-24 01:23N 40°39' W 074°07'0 0.0
2017-Mar-24 00:26N 40°39' W 074°07'0 0.0
2017-Mar-23 23:32N 40°39' W 074°07'0 0.0
2017-Mar-23 22:32N 40°39' W 074°07'2 2.1
2017-Mar-23 21:33N 40°40' W 074°04'0 0.0
2017-Mar-23 20:33N 40°40' W 074°04'0 0.0
2017-Mar-23 19:34N 40°40' W 074°04'5 5.3
2017-Mar-23 18:33N 40°43' W 073°58'7 6.5
2017-Mar-23 17:33N 40°48' W 073°53'67 8.4
2017-Mar-23 09:33N 41°09' W 072°29'1410.2
2017-Mar-23 08:12N 41°13' W 072°12'93 6.6
2017-Mar-22 18:09N 42°17' W 070°40'5 9.0
2017-Mar-22 17:33N 42°21' W 070°45'8 7.7
2017-Mar-22 16:34N 42°21' W 070°56'5 4.7
2017-Mar-22 15:33N 42°21' W 071°02'0 0.0
2017-Mar-22 14:33N 42°21' W 071°02'0 0.0
2017-Mar-22 13:33N 42°21' W 071°02'0 0.4
2017-Mar-22 12:33N 42°22' W 071°03'2 0.8
2017-Mar-22 10:29N 42°23' W 071°03'0 0.0
2017-Mar-22 09:32N 42°23' W 071°03'0 0.0
2017-Mar-22 08:32N 42°23' W 071°03'0 0.0
2017-Mar-22 07:32N 42°23' W 071°03'0 0.0
2017-Mar-22 06:32N 42°23' W 071°03'0 0.0
2017-Mar-22 05:32N 42°23' W 071°03'0 0.0
2017-Mar-22 04:32N 42°23' W 071°03'0 0.0
2017-Mar-22 03:32N 42°23' W 071°03'0 0.0
2017-Mar-22 02:32N 42°23' W 071°03'0 0.0
2017-Mar-22 01:32N 42°23' W 071°03'0 0.0
2017-Mar-22 00:32N 42°23' W 071°03'0 0.0
2017-Mar-21 23:32N 42°23' W 071°03'0 0.0
2017-Mar-21 22:32N 42°23' W 071°03'0 0.0
2017-Mar-21 21:32N 42°23' W 071°03'0 0.0
2017-Mar-21 20:32N 42°23' W 071°03'0 0.0
2017-Mar-21 19:32N 42°23' W 071°03'0 0.0
2017-Mar-21 18:32N 42°23' W 071°03'0 0.0
2017-Mar-21 17:32N 42°23' W 071°03'0 0.0
2017-Mar-21 16:32N 42°23' W 071°03'0 0.0
2017-Mar-21 15:32N 42°23' W 071°03'0 0.0
2017-Mar-21 14:32N 42°23' W 071°03'0 0.1
2017-Mar-21 13:08N 42°23' W 071°03'1 1.7
2017-Mar-21 12:33N 42°22' W 071°03'5 5.1
2017-Mar-21 11:34N 42°21' W 070°56'6 6.1
2017-Mar-21 10:34N 42°23' W 070°48'7 6.6
2017-Mar-21 09:33N 42°18' W 070°42'6 6.4
2017-Mar-21 08:33N 42°13' W 070°37'6 6.3
2017-Mar-21 07:33N 42°07' W 070°33'95 3.1
2017-Mar-20 01:19N 41°12' W 072°16'6 8.1
2017-Mar-20 00:33N 41°10' W 072°24'8 8.0
2017-Mar-19 23:33N 41°08' W 072°34'61 6.8
2017-Mar-19 14:33N 40°48' W 073°51'6 6.0
2017-Mar-19 13:33N 40°45' W 073°58'5 5.4
2017-Mar-19 12:33N 40°41' W 074°02'2 2.1
2017-Mar-19 11:33N 40°39' W 074°03'0 0.1
2017-Mar-19 10:33N 40°39' W 074°03'5 5.1
2017-Mar-19 09:33N 40°39' W 074°10'4 0.2
2017-Mar-18 14:25N 40°35' W 074°13'0 0.0
2017-Mar-18 13:33N 40°35' W 074°13'0 0.0
2017-Mar-18 11:10N 40°35' W 074°13'0 0.1
2017-Mar-18 10:33N 40°35' W 074°12'5 5.5
2017-Mar-18 09:33N 40°39' W 074°07'3 2.6
2017-Mar-18 08:34N 40°38' W 074°04'4 4.1
2017-Mar-18 07:34N 40°42' W 074°01'7 7.0
2017-Mar-18 06:33N 40°47' W 073°55'5 5.5
2017-Mar-18 05:33N 40°48' W 073°48'  

Dump ship's entire track history